• Join FlightAware (Why Join?)
  • Login
  • US Flag GB Flag 
20:36 EDT


 

Airport Tracker/Info


-or-


 

Live Flight TrackerFlight Track Log ✈ N618JB ✈ 11-Apr-2013 ✈ KMCO - KEWR

Flight Track Log - Related Links

Times and Time Zones

All times are in EDT time to prevent confusion due to time zone crossing. See the N618JB flight status page for this flight to view local times or setup timezone preferences in your user account.

Time Position Orientation Groundspeed Altitude Reporting Facility
EDT Latitude Longitude Course Direction KTS MPH feet Rate Location/Type
09:09 28.4167 -81.3167 350° North 152 175 800  Level Orlando TRACON
09:09 28.4000 -81.3000 139° Southeast 159 183 1,800 1,800 Climbing Orlando TRACON
09:10 28.3667 -81.2500 127° Southeast 223 257 3,500 2,340 Climbing Orlando TRACON
09:11 28.3500 -81.1833 106° East 260 299 6,500 2,220 Climbing Orlando TRACON
09:12 28.8590 -81.3526 355° North  Level FlightAware Approximate
09:12 28.3667 -81.1000 77° East 279 321 8,000  Level Orlando TRACON
09:13 28.9716 -81.3638 355° North  Level FlightAware Approximate
09:13 28.4500 -81.1000 360° North 301 346 8,700  Level Orlando TRACON
09:14 29.0833 -81.3833 350° North  Level FlightAware Approximate
09:15 28.6058 -81.1711 338° Northwest 349 402 12,100  Level Jacksonville Center
09:16 28.7044 -81.2167 338° Northwest 367 422 14,600 2,280 Climbing Jacksonville Center
09:17 28.8031 -81.2578 340° North 374 430 16,700 1,920 Climbing Jacksonville Center
09:18 28.9081 -81.3033 339° North 379 436 18,500 1,860 Climbing Jacksonville Center
09:19 29.0108 -81.3542 337° Northwest 391 450 20,500 1,680 Climbing Jacksonville Center
09:20 29.1242 -81.3928 343° North 402 463 21,900 1,440 Climbing Jacksonville Center
09:21 29.2433 -81.4028 356° North 415 478 23,400 1,560 Climbing Jacksonville Center
09:22 29.3644 -81.4175 354° North 426 490 25,100 1,560 Climbing Jacksonville Center
09:23 29.4983 -81.4300 355° North 437 503 26,600 900 Climbing Jacksonville Center
09:24 29.6214 -81.4425 355° North 437 503 27,000 180 Climbing Jacksonville Center
09:25 29.7469 -81.4525 356° North 443 510 27,000  Level Jacksonville Center
09:26 29.8703 -81.4650 355° North 443 510 27,000  Level Jacksonville Center
09:27 29.9956 -81.4775 355° North 443 510 27,000 120 Level Jacksonville Center
09:28 30.1211 -81.4925 354° North 448 516 27,300 480 Climbing Jacksonville Center
09:29 30.2303 -81.5558 333° Northwest 434 499 28,000 360 Climbing Jacksonville Center
09:30 30.3356 -81.6339 327° Northwest 434 499 28,100 600 Climbing Jacksonville Center
09:31 30.4406 -81.7119 327° Northwest 447 514 29,200 1,020 Climbing Jacksonville Center
09:32 30.5642 -81.7539 344° North 453 521 30,200 900 Climbing Jacksonville Center
09:33 30.6911 -81.7136 15° North 437 503 31,000 360 Climbing Jacksonville Center
09:34 30.8139 -81.6711 17° North 444 511 31,000  Level Jacksonville Center
09:35 30.9389 -81.6283 16° North 444 511 31,000  Level Jacksonville Center
09:36 31.0617 -81.5831 18° North 454 522 31,000  Level Jacksonville Center
09:37 31.1883 -81.5400 16° North 459 528 31,000  Level Jacksonville Center
09:38 31.3153 -81.4942 17° North 464 534 31,000  Level Jacksonville Center
09:39 31.4400 -81.4486 17° North 464 534 31,000  Level Jacksonville Center
09:40 31.5692 -81.4053 16° North 472 543 31,000  Level Jacksonville Center
09:41 31.6814 -81.3642 17° North 472 543 31,000  Level Jacksonville Center
09:42 31.8206 -81.3156 17° North 472 543 31,000  Level Jacksonville Center
09:43 31.9369 -81.2719 18° North 472 543 31,000  Level Jacksonville Center
09:44 32.0658 -81.2256 17° North 472 543 31,000  Level Jacksonville Center
09:45 32.1861 -81.1669 22° Northeast 472 543 31,000  Level Jacksonville Center
09:46 32.2997 -81.0861 31° Northeast 472 543 31,000  Level Jacksonville Center
09:47 32.4156 -81.0050 31° Northeast 472 543 31,000  Level Jacksonville Center
09:48 32.5292 -80.9264 30° Northeast 472 543 31,000  Level Jacksonville Center
09:49 32.6406 -80.8425 32° Northeast 472 543 31,000  Level Jacksonville Center
09:50 32.7539 -80.7608 31° Northeast 467 537 31,000  Level Jacksonville Center
09:51 32.8653 -80.6792 32° Northeast 467 537 31,000  Level Jacksonville Center
09:52 32.9869 -80.5894 32° Northeast 467 537 31,000  Level Jacksonville Center
09:53 33.1003 -80.5097 31° Northeast 467 537 31,000  Level Jacksonville Center
09:54 33.2114 -80.4297 31° Northeast 467 537 31,000  Level Jacksonville Center
09:55 33.3225 -80.3447 33° Northeast 467 537 31,000  Level Jacksonville Center
09:56 33.4314 -80.2644 32° Northeast 461 531 31,000  Level Jacksonville Center
09:57 33.5403 -80.1814 32° Northeast 461 531 31,000  Level Jacksonville Center
09:58 33.6489 -80.1006 32° Northeast 461 531 31,000  Level Jacksonville Center
09:59 33.7556 -80.0175 33° Northeast 461 531 31,000  Level Jacksonville Center
10:00 33.8644 -79.9389 31° Northeast 461 531 31,000  Level Jacksonville Center
10:01 33.9731 -79.8550 33° Northeast 461 531 31,000  Level Jacksonville Center
10:02 34.0775 -79.7736 33° Northeast 461 531 31,000  Level Jacksonville Center
10:05 34.3339 -79.6108 28° Northeast 451 519 31,000  Level Washington Center
10:06 34.4467 -79.5408 27° Northeast 451 519 31,000  Level Washington Center
10:07 34.5594 -79.4731 26° Northeast 451 519 31,000  Level Washington Center
10:08 34.6703 -79.4025 28° Northeast 451 519 31,000  Level Washington Center
10:09 34.7831 -79.3319 27° Northeast 451 519 31,000  Level Washington Center
10:10 34.8939 -79.2611 28° Northeast 446 513 31,000  Level Washington Center
10:11 35.0064 -79.1928 26° Northeast 446 513 31,000  Level Washington Center
10:12 35.1278 -79.1169 27° Northeast 446 513 31,000  Level Washington Center
10:13 35.2422 -79.0481 26° Northeast 446 513 31,000  Level Washington Center
10:14 35.3572 -78.9742 28° Northeast 446 513 31,000  Level Washington Center
10:15 35.4719 -78.9025 27° Northeast 451 519 31,000  Level Washington Center
10:16 35.5864 -78.8306 27° Northeast 451 519 31,000  Level Washington Center
10:17 35.7031 -78.7586 27° Northeast 456 525 31,000  Level Washington Center
10:18 35.8178 -78.6839 28° Northeast 456 525 31,000  Level Washington Center
10:19 35.9325 -78.6086 28° Northeast 456 525 31,000  Level Washington Center
10:20 36.0469 -78.5361 27° Northeast 456 525 31,000  Level Washington Center
10:21 36.1572 -78.4631 28° Northeast 456 525 31,000  Level Washington Center
10:22 36.2736 -78.3872 28° Northeast 456 525 31,000  Level Washington Center
10:23 36.3858 -78.3139 28° Northeast 456 525 31,000  Level Washington Center
10:24 36.5003 -78.2406 27° Northeast 456 525 31,000  Level Washington Center
10:25 36.6147 -78.1614 29° Northeast 456 525 31,000  Level Washington Center
10:26 36.7267 -78.0900 27° Northeast 451 519 31,000  Level Washington Center
10:27 36.8389 -78.0133 29° Northeast 451 519 31,000  Level Washington Center
10:28 36.9550 -77.9389 27° Northeast 456 525 31,000  Level Washington Center
10:29 37.0692 -77.8617 28° Northeast 456 525 31,000  Level Washington Center
10:30 37.1833 -77.7842 28° Northeast 456 525 31,000  Level Washington Center
10:31 37.2972 -77.7092 28° Northeast 456 525 31,000  Level Washington Center
10:32 37.4133 -77.6339 27° Northeast 456 525 31,000  Level Washington Center
10:33 37.5272 -77.5583 28° Northeast 456 525 31,000  Level Washington Center
10:34 37.6411 -77.4800 29° Northeast 456 525 31,000  Level Washington Center
10:35 37.7531 -77.4014 29° Northeast 456 525 31,000  Level Washington Center
10:36 37.8667 -77.3253 28° Northeast 462 532 31,000  Level Washington Center
10:37 37.9803 -77.2461 29° Northeast 462 532 31,000  Level Washington Center
10:38 38.0919 -77.1669 29° Northeast 462 532 31,000  Level Washington Center
10:39 38.1975 -77.0714 35° Northeast 462 532 31,000  Level Washington Center
10:40 38.3050 -76.9756 35° Northeast 462 532 31,000  Level Washington Center
10:41 38.4103 -76.8794 36° Northeast 462 532 31,000  Level Washington Center
10:42 38.5156 -76.7858 35° Northeast 462 532 31,000  Level Washington Center
10:43 38.6206 -76.6864 36° Northeast 462 532 31,000  Level Washington Center
10:44 38.7258 -76.5922 35° Northeast 462 532 31,000  Level Washington Center
10:45 38.8308 -76.4978 35° Northeast 462 532 31,000  Level Washington Center
10:46 38.9272 -76.4108 35° Northeast 462 532 31,000 -240 Level Washington Center
10:47 39.0364 -76.3106 35° Northeast 468 539 30,600 -1,080 Descending Washington Center
10:48 39.1431 -76.2125 35° Northeast 473 544 28,900 -1,740 Descending Washington Center
10:49 39.2478 -76.1117 37° Northeast 473 544 27,200 -960 Descending Washington Center
10:50 39.3442 -76.0050 41° Northeast 462 532 27,000 -120 Descending Washington Center
10:51 39.4403 -75.8953 41° Northeast 456 525 27,000 -960 Level Washington Center
10:52 39.5342 -75.7800 43° Northeast 456 525 25,100 -2,100 Descending Washington Center
10:53 39.6261 -75.6697 43° Northeast 456 525 22,800 -2,220 Descending Washington Center
10:54 39.7178 -75.5619 42° Northeast 446 513 20,700 -2,220 Descending Washington Center
10:55 39.8072 -75.4564 42° Northeast 441 507 18,400 -2,340 Descending Washington Center
10:56 39.8986 -75.3428 44° Northeast 423 487 16,100 -2,280 Descending Washington Center
10:57 39.9817 -75.2394 44° Northeast 411 473 13,900 -2,220 Descending Washington Center
10:58 40.0647 -75.1414 42° Northeast 406 467 11,700 -1,560 Descending Washington Center
10:59 40.1414 -75.0486 43° Northeast 391 450 10,800 -1,080 Descending Washington Center
11:00 40.2500 -74.9167 43° Northeast 331 381 9,000 -1,260 Descending New York TRACON
11:01 40.3000 -74.8167 57° Northeast 319 367 7,700 -1,680 Descending New York TRACON
11:02 40.3333 -74.7167 66° East 312 359 5,700 -1,560 Descending New York TRACON
11:03 40.3833 -74.6333 52° Northeast 300 345 4,600 -1,320 Descending New York TRACON
11:04 40.4167 -74.5333 66° East 273 314 3,100 -840 Descending New York TRACON
11:05 40.4500 -74.4500 62° Northeast 231 266 3,000 -60 Descending New York TRACON
11:06 40.4667 -74.3833 72° East 229 264 3,000  Level New York TRACON
11:07 40.5000 -74.3167 57° Northeast 227 261 3,000  Level New York TRACON
11:08 40.5500 -74.2667 37° Northeast 210 242 3,000 -540 Level New York TRACON
11:09 40.6000 -74.2333 27° Northeast 183 211 1,900 -1,020 Descending New York TRACON